sensor_id;sensor_type;location;lat;lon;timestamp;P1;durP1;ratioP1;P2;durP2;ratioP2
76935;SDS011;65881;52.438;16.744;2023-07-31T00:00:27;5.75;;;3.53;;
76935;SDS011;65881;52.438;16.744;2023-07-31T00:02:52;5.57;;;3.40;;
76935;SDS011;65881;52.438;16.744;2023-07-31T00:05:19;6.32;;;3.63;;
76935;SDS011;65881;52.438;16.744;2023-07-31T00:07:45;3.92;;;2.92;;
76935;SDS011;65881;52.438;16.744;2023-07-31T00:10:10;4.45;;;3.22;;
76935;SDS011;65881;52.438;16.744;2023-07-31T00:12:37;5.57;;;3.53;;
76935;SDS011;65881;52.438;16.744;2023-07-31T00:15:04;5.90;;;3.38;;
76935;SDS011;65881;52.438;16.744;2023-07-31T00:17:30;5.55;;;3.40;;
76935;SDS011;65881;52.438;16.744;2023-07-31T00:19:56;9.35;;;4.30;;
76935;SDS011;65881;52.438;16.744;2023-07-31T00:22:22;7.75;;;3.80;;
76935;SDS011;65881;52.438;16.744;2023-07-31T00:24:47;5.65;;;3.25;;
76935;SDS011;65881;52.438;16.744;2023-07-31T00:27:13;9.85;;;4.10;;
76935;SDS011;65881;52.438;16.744;2023-07-31T00:29:39;4.82;;;3.47;;
76935;SDS011;65881;52.438;16.744;2023-07-31T00:32:05;6.00;;;4.00;;
76935;SDS011;65881;52.438;16.744;2023-07-31T00:34:31;4.53;;;3.47;;
76935;SDS011;65881;52.438;16.744;2023-07-31T00:36:56;6.72;;;3.55;;
76935;SDS011;65881;52.438;16.744;2023-07-31T00:39:23;4.05;;;3.50;;
76935;SDS011;65881;52.438;16.744;2023-07-31T00:41:49;7.00;;;3.92;;
76935;SDS011;65881;52.438;16.744;2023-07-31T00:44:14;8.05;;;3.85;;
76935;SDS011;65881;52.438;16.744;2023-07-31T00:46:40;6.03;;;3.88;;
76935;SDS011;65881;52.438;16.744;2023-07-31T00:49:05;6.53;;;4.10;;
76935;SDS011;65881;52.438;16.744;2023-07-31T00:51:32;6.05;;;3.85;;
76935;SDS011;65881;52.438;16.744;2023-07-31T00:53:58;5.03;;;3.47;;
76935;SDS011;65881;52.438;16.744;2023-07-31T00:56:24;5.28;;;3.40;;
76935;SDS011;65881;52.438;16.744;2023-07-31T00:58:51;4.72;;;3.30;;
76935;SDS011;65881;52.438;16.744;2023-07-31T01:01:16;7.57;;;4.32;;
76935;SDS011;65881;52.438;16.744;2023-07-31T01:03:42;7.50;;;3.78;;
76935;SDS011;65881;52.438;16.744;2023-07-31T01:06:17;4.55;;;3.63;;
76935;SDS011;65881;52.438;16.744;2023-07-31T01:11:30;4.28;;;3.88;;
76935;SDS011;65881;52.438;16.744;2023-07-31T01:13:59;7.45;;;3.83;;
76935;SDS011;65881;52.438;16.744;2023-07-31T01:16:25;8.00;;;3.75;;
76935;SDS011;65881;52.438;16.744;2023-07-31T01:18:52;6.35;;;4.15;;
76935;SDS011;65881;52.438;16.744;2023-07-31T01:21:21;4.35;;;3.85;;
76935;SDS011;65881;52.438;16.744;2023-07-31T01:26:56;5.28;;;3.70;;
76935;SDS011;65881;52.438;16.744;2023-07-31T01:32:21;4.70;;;3.58;;
76935;SDS011;65881;52.438;16.744;2023-07-31T01:34:49;6.57;;;3.80;;
76935;SDS011;65881;52.438;16.744;2023-07-31T01:37:15;4.43;;;3.78;;
76935;SDS011;65881;52.438;16.744;2023-07-31T01:39:41;7.03;;;4.18;;
76935;SDS011;65881;52.438;16.744;2023-07-31T01:42:07;7.80;;;4.20;;
76935;SDS011;65881;52.438;16.744;2023-07-31T01:44:32;5.13;;;3.55;;
76935;SDS011;65881;52.438;16.744;2023-07-31T01:46:58;5.68;;;3.58;;
76935;SDS011;65881;52.438;16.744;2023-07-31T01:49:25;7.55;;;4.03;;
76935;SDS011;65881;52.438;16.744;2023-07-31T01:51:50;6.35;;;4.03;;
76935;SDS011;65881;52.438;16.744;2023-07-31T01:54:16;9.52;;;4.65;;
76935;SDS011;65881;52.438;16.744;2023-07-31T01:56:42;7.72;;;4.80;;
76935;SDS011;65881;52.438;16.744;2023-07-31T01:59:07;13.27;;;8.80;;
76935;SDS011;65881;52.438;16.744;2023-07-31T02:01:33;16.52;;;9.27;;
76935;SDS011;65881;52.438;16.744;2023-07-31T02:03:59;15.98;;;7.10;;
76935;SDS011;65881;52.438;16.744;2023-07-31T02:06:24;16.23;;;7.97;;
76935;SDS011;65881;52.438;16.744;2023-07-31T02:08:50;11.38;;;6.82;;
76935;SDS011;65881;52.438;16.744;2023-07-31T02:11:16;10.77;;;4.53;;
76935;SDS011;65881;52.438;16.744;2023-07-31T02:13:41;8.60;;;4.75;;
76935;SDS011;65881;52.438;16.744;2023-07-31T02:19:17;6.05;;;3.83;;
76935;SDS011;65881;52.438;16.744;2023-07-31T02:21:42;6.82;;;3.80;;
76935;SDS011;65881;52.438;16.744;2023-07-31T02:24:08;4.30;;;3.45;;
76935;SDS011;65881;52.438;16.744;2023-07-31T02:26:35;6.20;;;4.30;;
76935;SDS011;65881;52.438;16.744;2023-07-31T02:29:16;6.97;;;4.38;;
76935;SDS011;65881;52.438;16.744;2023-07-31T02:31:53;5.35;;;4.07;;
76935;SDS011;65881;52.438;16.744;2023-07-31T02:34:19;5.00;;;4.13;;
76935;SDS011;65881;52.438;16.744;2023-07-31T02:36:45;7.18;;;4.53;;
76935;SDS011;65881;52.438;16.744;2023-07-31T02:39:10;5.35;;;3.78;;
76935;SDS011;65881;52.438;16.744;2023-07-31T02:41:36;9.85;;;4.18;;
76935;SDS011;65881;52.438;16.744;2023-07-31T02:44:01;5.10;;;4.13;;
76935;SDS011;65881;52.438;16.744;2023-07-31T02:46:27;5.93;;;4.20;;
76935;SDS011;65881;52.438;16.744;2023-07-31T02:48:53;5.85;;;4.05;;
76935;SDS011;65881;52.438;16.744;2023-07-31T02:51:19;4.82;;;4.13;;
76935;SDS011;65881;52.438;16.744;2023-07-31T02:56:59;5.03;;;4.28;;
76935;SDS011;65881;52.438;16.744;2023-07-31T02:59:28;4.97;;;3.97;;
76935;SDS011;65881;52.438;16.744;2023-07-31T03:12:03;5.65;;;4.07;;
76935;SDS011;65881;52.438;16.744;2023-07-31T03:19:36;6.50;;;4.20;;
76935;SDS011;65881;52.438;16.744;2023-07-31T03:22:01;5.13;;;4.07;;
76935;SDS011;65881;52.438;16.744;2023-07-31T03:24:28;4.93;;;4.32;;
76935;SDS011;65881;52.438;16.744;2023-07-31T03:26:54;6.32;;;4.20;;
76935;SDS011;65881;52.438;16.744;2023-07-31T03:31:55;6.22;;;4.55;;
76935;SDS011;65881;52.438;16.744;2023-07-31T03:34:21;7.30;;;5.13;;
76935;SDS011;65881;52.438;16.744;2023-07-31T03:36:47;5.47;;;4.10;;
76935;SDS011;65881;52.438;16.744;2023-07-31T03:39:12;8.43;;;4.88;;
76935;SDS011;65881;52.438;16.744;2023-07-31T03:41:38;5.85;;;4.85;;
76935;SDS011;65881;52.438;16.744;2023-07-31T03:44:04;5.25;;;4.22;;
76935;SDS011;65881;52.438;16.744;2023-07-31T03:49:33;6.35;;;4.65;;
76935;SDS011;65881;52.438;16.744;2023-07-31T03:51:59;9.23;;;5.28;;
76935;SDS011;65881;52.438;16.744;2023-07-31T03:55:18;6.80;;;5.07;;
76935;SDS011;65881;52.438;16.744;2023-07-31T04:35:56;9.02;;;6.53;;
76935;SDS011;65881;52.438;16.744;2023-07-31T04:45:11;9.55;;;6.20;;
76935;SDS011;65881;52.438;16.744;2023-07-31T05:16:50;7.95;;;5.82;;
76935;SDS011;65881;52.438;16.744;2023-07-31T05:19:16;9.68;;;5.82;;
76935;SDS011;65881;52.438;16.744;2023-07-31T05:21:42;9.05;;;5.32;;
76935;SDS011;65881;52.438;16.744;2023-07-31T05:24:10;9.50;;;6.65;;
76935;SDS011;65881;52.438;16.744;2023-07-31T05:26:36;10.88;;;6.20;;
76935;SDS011;65881;52.438;16.744;2023-07-31T05:31:38;8.10;;;5.50;;
76935;SDS011;65881;52.438;16.744;2023-07-31T05:34:04;7.97;;;5.72;;
76935;SDS011;65881;52.438;16.744;2023-07-31T05:36:29;10.43;;;6.50;;
76935;SDS011;65881;52.438;16.744;2023-07-31T05:38:55;9.48;;;5.45;;
76935;SDS011;65881;52.438;16.744;2023-07-31T05:41:21;8.02;;;5.50;;
76935;SDS011;65881;52.438;16.744;2023-07-31T05:43:46;7.88;;;5.55;;
76935;SDS011;65881;52.438;16.744;2023-07-31T05:46:12;9.30;;;5.53;;
76935;SDS011;65881;52.438;16.744;2023-07-31T05:48:37;6.88;;;5.80;;
76935;SDS011;65881;52.438;16.744;2023-07-31T05:51:03;10.45;;;5.25;;
76935;SDS011;65881;52.438;16.744;2023-07-31T05:53:29;7.22;;;4.80;;
76935;SDS011;65881;52.438;16.744;2023-07-31T05:55:54;7.60;;;5.43;;
76935;SDS011;65881;52.438;16.744;2023-07-31T05:58:20;6.75;;;5.05;;
76935;SDS011;65881;52.438;16.744;2023-07-31T06:00:46;6.03;;;5.18;;
76935;SDS011;65881;52.438;16.744;2023-07-31T06:03:12;7.25;;;5.22;;
76935;SDS011;65881;52.438;16.744;2023-07-31T06:05:37;8.18;;;5.63;;
76935;SDS011;65881;52.438;16.744;2023-07-31T06:08:03;9.27;;;5.00;;
76935;SDS011;65881;52.438;16.744;2023-07-31T06:10:29;7.88;;;5.13;;
76935;SDS011;65881;52.438;16.744;2023-07-31T06:12:54;8.02;;;5.22;;
76935;SDS011;65881;52.438;16.744;2023-07-31T06:15:23;5.65;;;4.90;;
76935;SDS011;65881;52.438;16.744;2023-07-31T06:18:22;8.13;;;5.05;;
76935;SDS011;65881;52.438;16.744;2023-07-31T06:21:05;7.07;;;5.13;;
76935;SDS011;65881;52.438;16.744;2023-07-31T06:23:31;5.43;;;4.22;;
76935;SDS011;65881;52.438;16.744;2023-07-31T06:25:57;9.40;;;5.20;;
76935;SDS011;65881;52.438;16.744;2023-07-31T06:28:29;9.40;;;5.50;;
76935;SDS011;65881;52.438;16.744;2023-07-31T06:30:55;6.90;;;4.95;;
76935;SDS011;65881;52.438;16.744;2023-07-31T06:33:21;10.30;;;5.70;;
76935;SDS011;65881;52.438;16.744;2023-07-31T06:35:47;11.25;;;5.05;;
76935;SDS011;65881;52.438;16.744;2023-07-31T06:38:13;7.22;;;4.07;;
76935;SDS011;65881;52.438;16.744;2023-07-31T06:40:38;7.43;;;4.35;;
76935;SDS011;65881;52.438;16.744;2023-07-31T06:43:04;5.80;;;4.13;;
76935;SDS011;65881;52.438;16.744;2023-07-31T06:45:35;8.23;;;4.47;;
76935;SDS011;65881;52.438;16.744;2023-07-31T06:48:02;10.18;;;5.07;;
76935;SDS011;65881;52.438;16.744;2023-07-31T06:50:29;6.78;;;4.22;;
76935;SDS011;65881;52.438;16.744;2023-07-31T06:52:56;7.13;;;4.72;;
76935;SDS011;65881;52.438;16.744;2023-07-31T06:55:23;9.38;;;6.45;;
76935;SDS011;65881;52.438;16.744;2023-07-31T06:57:49;7.00;;;4.78;;
76935;SDS011;65881;52.438;16.744;2023-07-31T07:00:17;7.10;;;4.32;;
76935;SDS011;65881;52.438;16.744;2023-07-31T07:02:44;6.43;;;4.30;;
76935;SDS011;65881;52.438;16.744;2023-07-31T07:05:12;5.72;;;4.25;;
76935;SDS011;65881;52.438;16.744;2023-07-31T07:07:38;8.82;;;4.53;;
76935;SDS011;65881;52.438;16.744;2023-07-31T07:10:04;9.80;;;4.45;;
76935;SDS011;65881;52.438;16.744;2023-07-31T07:12:33;6.15;;;4.40;;
76935;SDS011;65881;52.438;16.744;2023-07-31T07:14:59;5.70;;;4.22;;
76935;SDS011;65881;52.438;16.744;2023-07-31T07:17:28;9.20;;;4.72;;
76935;SDS011;65881;52.438;16.744;2023-07-31T07:19:58;4.15;;;3.03;;
76935;SDS011;65881;52.438;16.744;2023-07-31T07:22:24;7.68;;;4.40;;
76935;SDS011;65881;52.438;16.744;2023-07-31T07:24:51;8.20;;;4.18;;
76935;SDS011;65881;52.438;16.744;2023-07-31T07:27:18;7.13;;;4.45;;
76935;SDS011;65881;52.438;16.744;2023-07-31T07:29:43;9.20;;;4.53;;
76935;SDS011;65881;52.438;16.744;2023-07-31T07:32:18;6.70;;;3.45;;
76935;SDS011;65881;52.438;16.744;2023-07-31T07:34:48;8.90;;;3.70;;
76935;SDS011;65881;52.438;16.744;2023-07-31T07:37:14;5.35;;;3.67;;
76935;SDS011;65881;52.438;16.744;2023-07-31T07:39:39;8.57;;;4.28;;
76935;SDS011;65881;52.438;16.744;2023-07-31T07:42:05;5.40;;;3.88;;
76935;SDS011;65881;52.438;16.744;2023-07-31T07:44:35;8.50;;;4.05;;
76935;SDS011;65881;52.438;16.744;2023-07-31T07:47:01;4.95;;;3.33;;
76935;SDS011;65881;52.438;16.744;2023-07-31T07:49:33;4.47;;;3.30;;
76935;SDS011;65881;52.438;16.744;2023-07-31T08:16:10;7.95;;;4.38;;
76935;SDS011;65881;52.438;16.744;2023-07-31T08:18:35;6.88;;;3.80;;
76935;SDS011;65881;52.438;16.744;2023-07-31T08:21:04;7.32;;;4.25;;
76935;SDS011;65881;52.438;16.744;2023-07-31T08:26:14;8.35;;;4.50;;
76935;SDS011;65881;52.438;16.744;2023-07-31T08:32:03;6.07;;;3.42;;
76935;SDS011;65881;52.438;16.744;2023-07-31T08:37:10;6.43;;;4.53;;
76935;SDS011;65881;52.438;16.744;2023-07-31T08:39:51;8.05;;;3.65;;
76935;SDS011;65881;52.438;16.744;2023-07-31T08:42:19;4.82;;;3.40;;
76935;SDS011;65881;52.438;16.744;2023-07-31T08:44:52;7.05;;;4.65;;
76935;SDS011;65881;52.438;16.744;2023-07-31T08:47:37;10.02;;;3.78;;
76935;SDS011;65881;52.438;16.744;2023-07-31T08:55:44;8.00;;;4.57;;
76935;SDS011;65881;52.438;16.744;2023-07-31T08:58:25;5.28;;;3.50;;
76935;SDS011;65881;52.438;16.744;2023-07-31T09:01:28;7.07;;;3.55;;
76935;SDS011;65881;52.438;16.744;2023-07-31T09:04:21;6.50;;;3.30;;
76935;SDS011;65881;52.438;16.744;2023-07-31T09:06:48;7.75;;;3.78;;
76935;SDS011;65881;52.438;16.744;2023-07-31T09:09:42;8.10;;;3.60;;
76935;SDS011;65881;52.438;16.744;2023-07-31T09:12:10;8.88;;;3.92;;
76935;SDS011;65881;52.438;16.744;2023-07-31T09:14:36;6.07;;;4.28;;
76935;SDS011;65881;52.438;16.744;2023-07-31T09:17:06;6.85;;;3.80;;
76935;SDS011;65881;52.438;16.744;2023-07-31T09:19:33;9.10;;;3.85;;
76935;SDS011;65881;52.438;16.744;2023-07-31T09:28:22;7.05;;;4.70;;
76935;SDS011;65881;52.438;16.744;2023-07-31T09:31:08;10.20;;;5.05;;
76935;SDS011;65881;52.438;16.744;2023-07-31T09:38:54;11.63;;;6.20;;
76935;SDS011;65881;52.438;16.744;2023-07-31T09:41:38;14.93;;;5.78;;
76935;SDS011;65881;52.438;16.744;2023-07-31T09:44:05;8.70;;;5.47;;
76935;SDS011;65881;52.438;16.744;2023-07-31T09:49:50;6.18;;;5.28;;
76935;SDS011;65881;52.438;16.744;2023-07-31T09:52:15;8.30;;;5.38;;
76935;SDS011;65881;52.438;16.744;2023-07-31T09:54:41;8.90;;;5.15;;
76935;SDS011;65881;52.438;16.744;2023-07-31T09:57:07;7.57;;;4.55;;
76935;SDS011;65881;52.438;16.744;2023-07-31T09:59:34;7.30;;;5.45;;
76935;SDS011;65881;52.438;16.744;2023-07-31T10:02:03;10.98;;;4.45;;
76935;SDS011;65881;52.438;16.744;2023-07-31T10:04:37;6.75;;;4.57;;
76935;SDS011;65881;52.438;16.744;2023-07-31T10:07:22;6.97;;;4.43;;
76935;SDS011;65881;52.438;16.744;2023-07-31T10:13:01;10.55;;;4.32;;
76935;SDS011;65881;52.438;16.744;2023-07-31T10:15:31;6.45;;;4.90;;
76935;SDS011;65881;52.438;16.744;2023-07-31T10:18:00;5.63;;;4.50;;
76935;SDS011;65881;52.438;16.744;2023-07-31T10:20:29;9.68;;;5.28;;
76935;SDS011;65881;52.438;16.744;2023-07-31T10:22:55;7.47;;;4.90;;
76935;SDS011;65881;52.438;16.744;2023-07-31T10:25:40;8.10;;;4.95;;
76935;SDS011;65881;52.438;16.744;2023-07-31T10:30:33;7.55;;;4.75;;
76935;SDS011;65881;52.438;16.744;2023-07-31T10:36:17;6.05;;;4.45;;
76935;SDS011;65881;52.438;16.744;2023-07-31T10:38:48;8.65;;;4.32;;
76935;SDS011;65881;52.438;16.744;2023-07-31T10:41:17;7.55;;;5.38;;
76935;SDS011;65881;52.438;16.744;2023-07-31T10:47:16;7.13;;;4.85;;
76935;SDS011;65881;52.438;16.744;2023-07-31T10:56:57;5.18;;;4.43;;
76935;SDS011;65881;52.438;16.744;2023-07-31T10:59:38;8.98;;;4.85;;
76935;SDS011;65881;52.438;16.744;2023-07-31T11:02:06;10.70;;;6.07;;
76935;SDS011;65881;52.438;16.744;2023-07-31T11:07:47;9.27;;;4.60;;
76935;SDS011;65881;52.438;16.744;2023-07-31T11:21:33;5.30;;;3.78;;
76935;SDS011;65881;52.438;16.744;2023-07-31T11:24:08;4.85;;;3.90;;
76935;SDS011;65881;52.438;16.744;2023-07-31T11:26:58;8.98;;;4.60;;
76935;SDS011;65881;52.438;16.744;2023-07-31T11:29:34;4.30;;;3.75;;
76935;SDS011;65881;52.438;16.744;2023-07-31T11:32:15;5.50;;;3.65;;
76935;SDS011;65881;52.438;16.744;2023-07-31T11:35:12;4.07;;;3.67;;
76935;SDS011;65881;52.438;16.744;2023-07-31T11:40:13;6.70;;;4.07;;
76935;SDS011;65881;52.438;16.744;2023-07-31T11:42:42;5.50;;;3.88;;
76935;SDS011;65881;52.438;16.744;2023-07-31T11:47:56;5.10;;;4.07;;
76935;SDS011;65881;52.438;16.744;2023-07-31T11:50:22;5.80;;;3.97;;
76935;SDS011;65881;52.438;16.744;2023-07-31T11:56:41;8.50;;;4.70;;
76935;SDS011;65881;52.438;16.744;2023-07-31T11:59:27;5.55;;;4.68;;
76935;SDS011;65881;52.438;16.744;2023-07-31T12:01:53;6.00;;;4.40;;
76935;SDS011;65881;52.438;16.744;2023-07-31T12:04:23;5.63;;;4.70;;
76935;SDS011;65881;52.438;16.744;2023-07-31T12:07:00;7.40;;;5.53;;
76935;SDS011;65881;52.438;16.744;2023-07-31T12:09:26;6.85;;;5.65;;
76935;SDS011;65881;52.438;16.744;2023-07-31T12:11:57;6.63;;;5.35;;
76935;SDS011;65881;52.438;16.744;2023-07-31T12:14:24;7.38;;;5.10;;
76935;SDS011;65881;52.438;16.744;2023-07-31T12:16:56;7.03;;;5.45;;
76935;SDS011;65881;52.438;16.744;2023-07-31T12:19:23;7.03;;;5.50;;
76935;SDS011;65881;52.438;16.744;2023-07-31T12:21:52;8.65;;;5.57;;
76935;SDS011;65881;52.438;16.744;2023-07-31T12:24:18;8.55;;;6.15;;
76935;SDS011;65881;52.438;16.744;2023-07-31T12:26:48;7.53;;;6.22;;
76935;SDS011;65881;52.438;16.744;2023-07-31T12:29:21;7.80;;;5.22;;
76935;SDS011;65881;52.438;16.744;2023-07-31T12:31:47;8.70;;;5.68;;
76935;SDS011;65881;52.438;16.744;2023-07-31T12:34:16;7.43;;;5.10;;
76935;SDS011;65881;52.438;16.744;2023-07-31T12:36:43;4.88;;;4.20;;
76935;SDS011;65881;52.438;16.744;2023-07-31T12:39:09;6.40;;;4.97;;
76935;SDS011;65881;52.438;16.744;2023-07-31T12:41:35;5.68;;;4.30;;
76935;SDS011;65881;52.438;16.744;2023-07-31T12:44:01;6.38;;;4.97;;
76935;SDS011;65881;52.438;16.744;2023-07-31T12:46:28;8.60;;;4.63;;
76935;SDS011;65881;52.438;16.744;2023-07-31T12:48:53;5.95;;;4.53;;
76935;SDS011;65881;52.438;16.744;2023-07-31T12:51:19;7.57;;;5.18;;
76935;SDS011;65881;52.438;16.744;2023-07-31T12:53:55;5.10;;;4.53;;
76935;SDS011;65881;52.438;16.744;2023-07-31T12:56:20;6.28;;;5.10;;
76935;SDS011;65881;52.438;16.744;2023-07-31T12:58:46;9.25;;;5.47;;
76935;SDS011;65881;52.438;16.744;2023-07-31T13:01:11;8.57;;;5.43;;
76935;SDS011;65881;52.438;16.744;2023-07-31T13:03:52;6.72;;;4.68;;
76935;SDS011;65881;52.438;16.744;2023-07-31T13:06:37;8.30;;;4.85;;
76935;SDS011;65881;52.438;16.744;2023-07-31T13:09:11;6.60;;;4.57;;
76935;SDS011;65881;52.438;16.744;2023-07-31T13:11:37;5.70;;;5.10;;
76935;SDS011;65881;52.438;16.744;2023-07-31T13:14:03;5.40;;;4.70;;
76935;SDS011;65881;52.438;16.744;2023-07-31T13:16:28;6.80;;;5.03;;
76935;SDS011;65881;52.438;16.744;2023-07-31T13:18:54;6.28;;;4.90;;
76935;SDS011;65881;52.438;16.744;2023-07-31T13:21:32;5.25;;;4.47;;
76935;SDS011;65881;52.438;16.744;2023-07-31T13:24:03;7.18;;;4.82;;
76935;SDS011;65881;52.438;16.744;2023-07-31T13:26:35;7.43;;;4.45;;
76935;SDS011;65881;52.438;16.744;2023-07-31T13:29:02;6.97;;;4.70;;
76935;SDS011;65881;52.438;16.744;2023-07-31T13:31:42;10.38;;;5.15;;
76935;SDS011;65881;52.438;16.744;2023-07-31T13:34:08;8.07;;;5.50;;
76935;SDS011;65881;52.438;16.744;2023-07-31T13:36:34;7.88;;;5.82;;
76935;SDS011;65881;52.438;16.744;2023-07-31T13:39:02;6.72;;;5.47;;
76935;SDS011;65881;52.438;16.744;2023-07-31T13:41:42;7.28;;;5.03;;
76935;SDS011;65881;52.438;16.744;2023-07-31T13:44:08;6.25;;;4.82;;
76935;SDS011;65881;52.438;16.744;2023-07-31T13:46:33;5.75;;;4.65;;
76935;SDS011;65881;52.438;16.744;2023-07-31T13:48:59;6.38;;;5.18;;
76935;SDS011;65881;52.438;16.744;2023-07-31T13:51:44;6.03;;;4.85;;
76935;SDS011;65881;52.438;16.744;2023-07-31T13:54:12;6.32;;;4.72;;
76935;SDS011;65881;52.438;16.744;2023-07-31T13:56:43;7.53;;;5.68;;
76935;SDS011;65881;52.438;16.744;2023-07-31T13:59:09;8.05;;;4.93;;
76935;SDS011;65881;52.438;16.744;2023-07-31T14:01:35;10.32;;;5.13;;
76935;SDS011;65881;52.438;16.744;2023-07-31T14:04:01;6.15;;;4.43;;
76935;SDS011;65881;52.438;16.744;2023-07-31T14:06:27;10.10;;;4.88;;
76935;SDS011;65881;52.438;16.744;2023-07-31T14:08:55;5.70;;;4.63;;
76935;SDS011;65881;52.438;16.744;2023-07-31T14:11:21;5.13;;;4.38;;
76935;SDS011;65881;52.438;16.744;2023-07-31T14:13:47;6.10;;;4.53;;
76935;SDS011;65881;52.438;16.744;2023-07-31T14:16:15;6.90;;;4.65;;
76935;SDS011;65881;52.438;16.744;2023-07-31T14:18:41;6.47;;;4.03;;
76935;SDS011;65881;52.438;16.744;2023-07-31T14:21:11;10.35;;;5.82;;
76935;SDS011;65881;52.438;16.744;2023-07-31T14:23:37;4.82;;;3.55;;
76935;SDS011;65881;52.438;16.744;2023-07-31T14:26:02;5.57;;;4.32;;
76935;SDS011;65881;52.438;16.744;2023-07-31T14:28:28;6.00;;;3.67;;
76935;SDS011;65881;52.438;16.744;2023-07-31T14:30:56;6.10;;;4.00;;
76935;SDS011;65881;52.438;16.744;2023-07-31T14:33:22;6.30;;;3.97;;
76935;SDS011;65881;52.438;16.744;2023-07-31T14:35:47;4.22;;;3.42;;
76935;SDS011;65881;52.438;16.744;2023-07-31T14:38:13;5.18;;;3.70;;
76935;SDS011;65881;52.438;16.744;2023-07-31T14:40:39;5.00;;;3.67;;
76935;SDS011;65881;52.438;16.744;2023-07-31T14:43:05;4.88;;;3.28;;
76935;SDS011;65881;52.438;16.744;2023-07-31T14:45:30;6.13;;;3.42;;
76935;SDS011;65881;52.438;16.744;2023-07-31T14:47:56;5.43;;;3.53;;
76935;SDS011;65881;52.438;16.744;2023-07-31T14:50:22;7.18;;;3.20;;
76935;SDS011;65881;52.438;16.744;2023-07-31T14:52:48;5.82;;;3.47;;
76935;SDS011;65881;52.438;16.744;2023-07-31T14:55:14;5.13;;;3.85;;
76935;SDS011;65881;52.438;16.744;2023-07-31T14:57:40;6.45;;;3.95;;
76935;SDS011;65881;52.438;16.744;2023-07-31T15:00:23;5.13;;;3.55;;
76935;SDS011;65881;52.438;16.744;2023-07-31T15:03:01;4.18;;;3.55;;
76935;SDS011;65881;52.438;16.744;2023-07-31T15:05:45;6.60;;;3.42;;
76935;SDS011;65881;52.438;16.744;2023-07-31T15:08:11;4.03;;;3.20;;
76935;SDS011;65881;52.438;16.744;2023-07-31T15:11:01;5.85;;;3.53;;
76935;SDS011;65881;52.438;16.744;2023-07-31T15:13:45;5.43;;;3.38;;
76935;SDS011;65881;52.438;16.744;2023-07-31T15:16:17;4.45;;;3.17;;
76935;SDS011;65881;52.438;16.744;2023-07-31T15:18:46;5.93;;;4.00;;
76935;SDS011;65881;52.438;16.744;2023-07-31T15:21:11;6.03;;;2.95;;
76935;SDS011;65881;52.438;16.744;2023-07-31T15:23:40;3.67;;;3.33;;
76935;SDS011;65881;52.438;16.744;2023-07-31T15:26:05;7.63;;;3.40;;
76935;SDS011;65881;52.438;16.744;2023-07-31T15:28:38;5.40;;;3.17;;
76935;SDS011;65881;52.438;16.744;2023-07-31T15:31:10;6.68;;;3.55;;
76935;SDS011;65881;52.438;16.744;2023-07-31T15:34:19;5.75;;;3.20;;
76935;SDS011;65881;52.438;16.744;2023-07-31T15:36:45;4.47;;;3.40;;
76935;SDS011;65881;52.438;16.744;2023-07-31T15:39:11;4.90;;;3.00;;
76935;SDS011;65881;52.438;16.744;2023-07-31T15:41:37;5.45;;;2.97;;
76935;SDS011;65881;52.438;16.744;2023-07-31T15:44:04;5.72;;;2.80;;
76935;SDS011;65881;52.438;16.744;2023-07-31T15:46:30;4.32;;;3.35;;
76935;SDS011;65881;52.438;16.744;2023-07-31T15:48:56;4.22;;;2.50;;
76935;SDS011;65881;52.438;16.744;2023-07-31T15:51:22;3.53;;;2.85;;
76935;SDS011;65881;52.438;16.744;2023-07-31T15:53:48;7.82;;;3.30;;
76935;SDS011;65881;52.438;16.744;2023-07-31T15:56:20;6.13;;;3.00;;
76935;SDS011;65881;52.438;16.744;2023-07-31T15:58:48;4.10;;;2.90;;
76935;SDS011;65881;52.438;16.744;2023-07-31T16:01:15;4.75;;;2.85;;
76935;SDS011;65881;52.438;16.744;2023-07-31T16:03:41;5.38;;;3.03;;
76935;SDS011;65881;52.438;16.744;2023-07-31T16:06:06;5.32;;;2.78;;
76935;SDS011;65881;52.438;16.744;2023-07-31T16:08:47;5.38;;;2.92;;
76935;SDS011;65881;52.438;16.744;2023-07-31T16:11:13;7.65;;;2.90;;
76935;SDS011;65881;52.438;16.744;2023-07-31T16:13:44;5.93;;;2.38;;
76935;SDS011;65881;52.438;16.744;2023-07-31T16:16:16;4.97;;;2.85;;
76935;SDS011;65881;52.438;16.744;2023-07-31T16:18:41;4.20;;;2.78;;
76935;SDS011;65881;52.438;16.744;2023-07-31T16:21:07;4.45;;;2.80;;
76935;SDS011;65881;52.438;16.744;2023-07-31T16:23:32;5.78;;;2.72;;
76935;SDS011;65881;52.438;16.744;2023-07-31T16:25:58;5.15;;;2.67;;
76935;SDS011;65881;52.438;16.744;2023-07-31T16:28:36;4.47;;;2.63;;
76935;SDS011;65881;52.438;16.744;2023-07-31T16:31:01;3.90;;;2.67;;
76935;SDS011;65881;52.438;16.744;2023-07-31T16:36:28;6.15;;;2.63;;
76935;SDS011;65881;52.438;16.744;2023-07-31T16:39:05;6.15;;;2.85;;
76935;SDS011;65881;52.438;16.744;2023-07-31T16:44:31;3.50;;;2.60;;
76935;SDS011;65881;52.438;16.744;2023-07-31T16:46:58;3.72;;;2.63;;
76935;SDS011;65881;52.438;16.744;2023-07-31T16:49:24;4.90;;;2.55;;
76935;SDS011;65881;52.438;16.744;2023-07-31T16:51:51;4.30;;;2.50;;
76935;SDS011;65881;52.438;16.744;2023-07-31T16:54:16;3.80;;;3.13;;
76935;SDS011;65881;52.438;16.744;2023-07-31T16:56:42;4.13;;;2.50;;
76935;SDS011;65881;52.438;16.744;2023-07-31T16:59:08;4.68;;;2.80;;
76935;SDS011;65881;52.438;16.744;2023-07-31T17:01:36;5.18;;;3.17;;
76935;SDS011;65881;52.438;16.744;2023-07-31T17:04:02;6.10;;;2.80;;
76935;SDS011;65881;52.438;16.744;2023-07-31T17:06:28;3.75;;;2.67;;
76935;SDS011;65881;52.438;16.744;2023-07-31T17:09:12;7.30;;;3.20;;
76935;SDS011;65881;52.438;16.744;2023-07-31T17:11:50;4.25;;;2.97;;
76935;SDS011;65881;52.438;16.744;2023-07-31T17:14:38;4.70;;;3.00;;
76935;SDS011;65881;52.438;16.744;2023-07-31T17:17:06;5.82;;;3.15;;
76935;SDS011;65881;52.438;16.744;2023-07-31T17:19:54;4.90;;;2.58;;
76935;SDS011;65881;52.438;16.744;2023-07-31T17:22:23;5.22;;;2.72;;
76935;SDS011;65881;52.438;16.744;2023-07-31T17:30:47;5.53;;;3.08;;
76935;SDS011;65881;52.438;16.744;2023-07-31T17:33:13;4.75;;;2.88;;
76935;SDS011;65881;52.438;16.744;2023-07-31T17:35:43;4.80;;;3.17;;
76935;SDS011;65881;52.438;16.744;2023-07-31T17:38:15;3.63;;;2.63;;
76935;SDS011;65881;52.438;16.744;2023-07-31T17:40:40;5.72;;;3.10;;
76935;SDS011;65881;52.438;16.744;2023-07-31T17:43:18;4.38;;;2.67;;
76935;SDS011;65881;52.438;16.744;2023-07-31T17:45:44;4.53;;;2.92;;
76935;SDS011;65881;52.438;16.744;2023-07-31T17:48:19;4.82;;;3.17;;
76935;SDS011;65881;52.438;16.744;2023-07-31T17:50:53;5.85;;;3.25;;
76935;SDS011;65881;52.438;16.744;2023-07-31T17:53:31;5.18;;;3.33;;
76935;SDS011;65881;52.438;16.744;2023-07-31T17:55:59;4.35;;;2.75;;
76935;SDS011;65881;52.438;16.744;2023-07-31T17:58:24;9.95;;;3.22;;
76935;SDS011;65881;52.438;16.744;2023-07-31T18:00:50;4.47;;;3.15;;
76935;SDS011;65881;52.438;16.744;2023-07-31T18:03:17;4.38;;;3.40;;
76935;SDS011;65881;52.438;16.744;2023-07-31T18:05:42;5.50;;;2.97;;
76935;SDS011;65881;52.438;16.744;2023-07-31T18:08:08;4.70;;;3.15;;
76935;SDS011;65881;52.438;16.744;2023-07-31T18:10:34;5.30;;;2.95;;
76935;SDS011;65881;52.438;16.744;2023-07-31T18:12:59;4.50;;;3.40;;
76935;SDS011;65881;52.438;16.744;2023-07-31T18:15:25;7.28;;;3.17;;
76935;SDS011;65881;52.438;16.744;2023-07-31T18:17:54;5.88;;;2.95;;
76935;SDS011;65881;52.438;16.744;2023-07-31T18:20:19;8.02;;;3.53;;
76935;SDS011;65881;52.438;16.744;2023-07-31T18:22:45;5.22;;;3.10;;
76935;SDS011;65881;52.438;16.744;2023-07-31T18:25:11;5.18;;;3.35;;